createdAt,value
2022-08-20T00:02:16.600Z,12.80
2022-08-20T00:04:45.655Z,13.80
2022-08-20T00:07:16.144Z,9.00
2022-08-20T00:09:45.229Z,14.00
2022-08-20T00:12:18.538Z,13.20
2022-08-20T00:14:48.331Z,13.40
2022-08-20T00:17:17.054Z,16.20
2022-08-20T00:19:45.505Z,13.40
2022-08-20T00:22:14.100Z,14.00
2022-08-20T00:24:42.770Z,12.60
2022-08-20T00:27:11.214Z,15.60
2022-08-20T00:29:39.623Z,12.20
2022-08-20T00:32:09.920Z,14.00
2022-08-20T00:34:38.379Z,14.80
2022-08-20T00:37:07.560Z,12.20
2022-08-20T00:39:36.913Z,15.20
2022-08-20T00:42:05.861Z,12.80
2022-08-20T00:44:34.655Z,12.60
2022-08-20T00:47:05.131Z,11.20
2022-08-20T00:49:34.985Z,14.20
2022-08-20T00:52:08.529Z,11.40
2022-08-20T00:54:41.717Z,14.60
2022-08-20T00:57:14.830Z,10.80
2022-08-20T00:59:44.538Z,12.80
2022-08-20T01:02:17.700Z,10.80
2022-08-20T01:04:51.081Z,11.00
2022-08-20T01:07:20.657Z,10.40
2022-08-20T01:09:58.779Z,12.80
2022-08-20T01:12:29.524Z,11.00
2022-08-20T01:15:01.968Z,12.60
2022-08-20T01:17:36.309Z,13.20
2022-08-20T01:20:11.703Z,13.00
2022-08-20T01:23:14.145Z,9.60
2022-08-20T01:25:48.704Z,9.20
2022-08-20T01:28:22.217Z,14.00
2022-08-20T01:30:51.128Z,12.40
2022-08-20T01:33:20.191Z,9.60
2022-08-20T01:35:49.315Z,13.60
2022-08-20T01:38:18.724Z,13.80
2022-08-20T01:41:05.044Z,7.80
2022-08-20T01:43:36.922Z,12.20
2022-08-20T01:46:06.150Z,9.60
2022-08-20T01:48:34.815Z,14.00
2022-08-20T01:51:07.234Z,11.60
2022-08-20T01:53:38.688Z,15.20
2022-08-20T01:56:11.631Z,13.20
2022-08-20T01:58:43.609Z,13.00
2022-08-20T02:01:22.073Z,12.80
2022-08-20T02:03:50.959Z,16.20
2022-08-20T02:06:19.723Z,9.00
2022-08-20T02:08:48.218Z,11.60
2022-08-20T02:11:18.249Z,11.20
2022-08-20T02:13:52.314Z,14.60
2022-08-20T02:16:23.406Z,11.80
2022-08-20T02:18:58.704Z,16.20
2022-08-20T02:21:32.537Z,13.40
2022-08-20T02:24:01.406Z,14.40
2022-08-20T02:26:31.954Z,14.80
2022-08-20T02:29:01.190Z,14.80
2022-08-20T02:31:34.198Z,10.80
2022-08-20T02:34:21.977Z,13.80
2022-08-20T02:36:52.510Z,13.80
2022-08-20T02:39:21.735Z,13.80
2022-08-20T02:41:51.479Z,13.00
2022-08-20T02:44:21.081Z,18.00
2022-08-20T02:46:51.129Z,14.80
2022-08-20T02:49:20.075Z,14.60
2022-08-20T02:51:48.653Z,14.40
2022-08-20T02:54:17.833Z,13.00
2022-08-20T02:56:46.457Z,14.60
2022-08-20T02:59:19.941Z,15.60
2022-08-20T03:01:59.495Z,16.60
2022-08-20T03:04:29.986Z,18.80
2022-08-20T03:06:59.342Z,19.00
2022-08-20T03:09:28.057Z,18.00
2022-08-20T03:11:56.614Z,16.80
2022-08-20T03:14:26.669Z,18.00
2022-08-20T03:16:55.306Z,23.80
2022-08-20T03:19:24.142Z,18.00
2022-08-20T03:21:53.343Z,21.25
2022-08-20T03:24:21.773Z,19.75
2022-08-20T03:26:50.917Z,18.00
2022-08-20T03:29:19.531Z,22.00
2022-08-20T03:31:49.509Z,21.40
2022-08-20T03:34:17.942Z,19.20
2022-08-20T03:36:46.557Z,20.00
2022-08-20T03:39:15.525Z,18.00
2022-08-20T03:41:43.972Z,19.20
2022-08-20T03:44:12.660Z,19.60
2022-08-20T03:46:41.088Z,21.80
2022-08-20T03:49:11.270Z,19.40
2022-08-20T03:51:57.820Z,20.20
2022-08-20T03:54:30.142Z,20.00
2022-08-20T03:57:01.494Z,26.75
2022-08-20T03:59:33.010Z,18.40
2022-08-20T04:02:02.293Z,19.60
2022-08-20T04:04:32.156Z,21.25
2022-08-20T04:07:00.538Z,19.00
2022-08-20T04:09:30.021Z,37.75
2022-08-20T04:12:00.326Z,23.00
2022-08-20T04:14:29.273Z,21.75
2022-08-20T04:16:58.963Z,25.75
2022-08-20T04:19:32.418Z,26.75
2022-08-20T04:22:04.254Z,24.25
2022-08-20T04:24:33.443Z,24.25
2022-08-20T04:27:03.423Z,22.75
2022-08-20T04:29:35.467Z,27.00
2022-08-20T04:32:05.997Z,27.50
2022-08-20T04:34:35.698Z,26.00
2022-08-20T04:37:06.247Z,27.75
2022-08-20T04:40:06.213Z,21.25
2022-08-20T04:42:36.092Z,25.00
2022-08-20T04:45:08.651Z,28.40
2022-08-20T04:47:37.081Z,19.20
2022-08-20T04:50:09.987Z,18.60
2022-08-20T04:52:40.929Z,18.20
2022-08-20T04:55:11.351Z,17.60
2022-08-20T04:57:39.959Z,20.00
2022-08-20T05:00:12.969Z,24.80
2022-08-20T05:02:42.062Z,16.60
2022-08-20T05:05:11.840Z,23.40
2022-08-20T05:07:44.668Z,20.80
2022-08-20T05:10:16.820Z,21.80
2022-08-20T05:12:57.012Z,21.20
2022-08-20T05:15:26.387Z,25.00
2022-08-20T05:17:57.908Z,23.50
2022-08-20T05:20:31.227Z,24.00
2022-08-20T05:23:03.168Z,28.00
2022-08-20T05:25:32.310Z,23.20
2022-08-20T05:28:02.104Z,21.20
2022-08-20T05:30:34.164Z,30.25
2022-08-20T05:33:04.360Z,26.20
2022-08-20T05:35:34.427Z,19.75
2022-08-20T05:38:04.230Z,23.20
2022-08-20T05:40:33.338Z,20.20
2022-08-20T05:43:04.743Z,21.80
2022-08-20T05:45:34.864Z,23.40
2022-08-20T05:48:05.756Z,18.60
2022-08-20T05:50:34.491Z,22.20
2022-08-20T05:53:04.608Z,25.75
2022-08-20T05:55:33.398Z,24.20
2022-08-20T05:58:04.999Z,22.60
2022-08-20T06:00:34.368Z,24.60
2022-08-20T06:03:20.808Z,25.80
2022-08-20T06:05:49.734Z,29.50
2022-08-20T06:08:19.835Z,29.75
2022-08-20T06:10:48.269Z,27.25
2022-08-20T06:13:16.849Z,26.80
2022-08-20T06:15:45.893Z,36.00
2022-08-20T06:18:27.999Z,29.25
2022-08-20T06:20:57.786Z,29.00
2022-08-20T06:23:27.871Z,33.75
2022-08-20T06:26:16.560Z,36.75
2022-08-20T06:28:55.774Z,38.00
2022-08-20T06:31:25.052Z,36.75
2022-08-20T06:33:53.588Z,32.75
2022-08-20T06:36:22.068Z,39.00
2022-08-20T06:38:52.241Z,35.00
2022-08-20T06:41:20.670Z,36.25
2022-08-20T06:43:49.127Z,27.75
2022-08-20T06:46:18.225Z,32.00
2022-08-20T06:48:46.663Z,34.00
2022-08-20T06:51:15.100Z,34.50
2022-08-20T06:53:44.011Z,35.25
2022-08-20T06:56:13.820Z,34.25
2022-08-20T06:58:43.333Z,33.75
2022-08-20T07:01:13.731Z,38.25
2022-08-20T07:03:54.240Z,33.25
2022-08-20T07:06:25.830Z,36.75
2022-08-20T07:08:55.291Z,35.00
2022-08-20T07:11:28.104Z,35.75
2022-08-20T07:13:58.237Z,39.25
2022-08-20T07:16:27.674Z,37.00
2022-08-20T07:18:56.196Z,34.50
2022-08-20T07:21:25.676Z,40.00
2022-08-20T07:23:54.492Z,35.25
2022-08-20T07:26:24.565Z,37.50
2022-08-20T07:28:54.533Z,40.50
2022-08-20T07:31:40.157Z,43.75
2022-08-20T07:34:11.732Z,35.25
2022-08-20T07:36:40.986Z,40.00
2022-08-20T07:39:09.511Z,40.25
2022-08-20T07:41:39.514Z,36.50
2022-08-20T07:44:08.011Z,41.75
2022-08-20T07:46:36.591Z,47.00
2022-08-20T07:49:10.015Z,43.75
2022-08-20T07:51:38.535Z,42.50
2022-08-20T07:54:07.200Z,42.25
2022-08-20T07:56:35.693Z,42.25
2022-08-20T07:59:06.647Z,45.00
2022-08-20T08:01:35.435Z,49.50
2022-08-20T08:04:04.567Z,44.50
2022-08-20T08:06:33.237Z,45.50
2022-08-20T08:09:05.745Z,39.75
2022-08-20T08:11:37.872Z,44.50
2022-08-20T08:14:10.917Z,42.25
2022-08-20T08:16:39.863Z,45.25
2022-08-20T08:19:14.377Z,42.25
2022-08-20T08:21:44.298Z,45.00
2022-08-20T08:24:17.950Z,45.50
2022-08-20T08:26:50.014Z,45.50
2022-08-20T08:29:20.380Z,40.50
2022-08-20T08:31:48.880Z,42.50
2022-08-20T08:34:17.419Z,44.25
2022-08-20T08:36:46.057Z,43.00
2022-08-20T08:39:14.508Z,39.50
2022-08-20T08:41:48.115Z,41.50
2022-08-20T08:44:24.508Z,46.75
2022-08-20T08:46:57.672Z,44.25
2022-08-20T08:49:37.428Z,46.00
2022-08-20T08:52:11.594Z,47.00
2022-08-20T08:54:44.087Z,40.50
2022-08-20T08:57:12.708Z,39.25
2022-08-20T08:59:52.384Z,39.00
2022-08-20T09:02:32.613Z,41.25
2022-08-20T09:05:05.523Z,41.25
2022-08-20T09:07:35.834Z,38.50
2022-08-20T09:10:06.202Z,39.50
2022-08-20T09:12:34.644Z,47.00
2022-08-20T09:15:04.924Z,36.75
2022-08-20T09:17:33.955Z,40.50
2022-08-20T09:20:02.581Z,43.00
2022-08-20T09:22:33.394Z,48.00
2022-08-20T09:25:03.594Z,48.50
2022-08-20T09:27:32.204Z,40.00
2022-08-20T09:30:00.676Z,45.25
2022-08-20T09:32:30.913Z,48.75
2022-08-20T09:35:00.648Z,46.00
2022-08-20T09:37:37.339Z,43.25
2022-08-20T09:40:08.760Z,45.50
2022-08-20T09:42:41.367Z,46.25
2022-08-20T09:45:12.153Z,47.50
2022-08-20T09:47:56.853Z,48.25
2022-08-20T09:50:27.474Z,45.25
2022-08-20T09:52:58.397Z,44.00
2022-08-20T09:55:35.124Z,41.75
2022-08-20T09:58:07.352Z,46.25
2022-08-20T10:00:36.165Z,44.25
2022-08-20T10:03:06.292Z,39.25
2022-08-20T10:05:34.757Z,46.25
2022-08-20T10:08:06.943Z,44.50
2022-08-20T10:10:35.526Z,31.50
2022-08-20T10:13:04.004Z,44.67
2022-08-20T10:15:33.179Z,43.50
2022-08-20T10:18:05.830Z,44.00
2022-08-20T10:20:36.771Z,44.50
2022-08-20T10:23:05.992Z,37.00
2022-08-20T10:25:34.914Z,41.00
2022-08-20T10:28:03.953Z,44.00
2022-08-20T10:30:32.631Z,44.75
2022-08-20T10:33:01.055Z,41.75
2022-08-20T10:35:29.952Z,39.75
2022-08-20T10:37:59.881Z,40.00
2022-08-20T10:40:28.400Z,41.75
2022-08-20T10:42:57.137Z,39.75
2022-08-20T10:45:26.323Z,43.00
2022-08-20T10:47:54.892Z,39.50
2022-08-20T10:50:23.622Z,36.00
2022-08-20T10:52:52.128Z,38.00
2022-08-20T10:55:22.921Z,40.00
2022-08-20T10:57:51.694Z,37.75
2022-08-20T11:00:20.680Z,39.00
2022-08-20T11:02:49.352Z,40.50
2022-08-20T11:05:18.448Z,40.50
2022-08-20T11:07:55.466Z,25.00
2022-08-20T11:10:33.995Z,40.50
2022-08-20T11:13:03.024Z,37.50
2022-08-20T11:15:33.239Z,37.50
2022-08-20T11:18:01.822Z,44.00
2022-08-20T11:20:31.992Z,32.00
2022-08-20T11:23:01.828Z,37.00
2022-08-20T11:25:32.576Z,35.25
2022-08-20T11:28:01.857Z,36.00
2022-08-20T11:30:34.378Z,38.75
2022-08-20T11:33:03.687Z,41.75
2022-08-20T11:35:48.006Z,36.50
2022-08-20T11:38:17.462Z,37.25
2022-08-20T11:40:47.967Z,41.75
2022-08-20T11:43:17.521Z,39.00
2022-08-20T11:45:48.971Z,40.50
2022-08-20T11:48:18.068Z,43.50
2022-08-20T11:50:47.263Z,46.50
2022-08-20T11:53:16.065Z,44.75
2022-08-20T11:55:44.957Z,44.25
2022-08-20T11:58:15.538Z,40.50
2022-08-20T12:00:44.199Z,43.25
2022-08-20T12:03:13.317Z,47.00
2022-08-20T12:05:45.521Z,44.75
2022-08-20T12:08:25.192Z,48.25
2022-08-20T12:10:58.473Z,44.25
2022-08-20T12:13:30.530Z,45.25
2022-08-20T12:16:00.075Z,47.75
2022-08-20T12:18:28.977Z,42.00
2022-08-20T12:20:57.430Z,39.00
2022-08-20T12:23:25.906Z,45.00
2022-08-20T12:25:54.664Z,40.50
2022-08-20T12:28:25.783Z,44.75
2022-08-20T12:30:55.939Z,40.75
2022-08-20T12:33:25.283Z,39.75
2022-08-20T12:35:53.977Z,36.25
2022-08-20T12:38:22.453Z,41.00
2022-08-20T12:40:51.179Z,41.25
2022-08-20T12:43:24.230Z,46.25
2022-08-20T12:45:55.935Z,45.25
2022-08-20T12:48:24.410Z,39.00
2022-08-20T12:50:53.182Z,40.00
2022-08-20T12:53:21.974Z,34.75
2022-08-20T12:55:50.528Z,42.75
2022-08-20T12:58:19.418Z,41.75
2022-08-20T13:00:50.592Z,46.25
2022-08-20T13:03:21.822Z,45.00
2022-08-20T13:05:50.863Z,47.00
2022-08-20T13:08:20.165Z,47.50
2022-08-20T13:10:48.990Z,46.50
2022-08-20T13:13:20.428Z,45.25
2022-08-20T13:15:51.333Z,45.50
2022-08-20T13:18:21.470Z,51.75
2022-08-20T13:20:50.357Z,52.25
2022-08-20T13:23:18.971Z,48.75
2022-08-20T13:25:47.708Z,50.00
2022-08-20T13:28:16.115Z,59.25
2022-08-20T13:30:44.568Z,51.00
2022-08-20T13:33:13.215Z,50.50
2022-08-20T13:35:43.226Z,54.25
2022-08-20T13:38:11.695Z,52.25
2022-08-20T13:40:40.431Z,49.75
2022-08-20T13:43:12.122Z,51.25
2022-08-20T13:45:42.353Z,47.25
2022-08-20T13:48:15.149Z,51.00
2022-08-20T13:50:47.048Z,50.00
2022-08-20T13:53:17.222Z,52.50
2022-08-20T13:55:46.156Z,55.00
2022-08-20T13:58:14.721Z,54.50
2022-08-20T14:00:43.392Z,54.25
2022-08-20T14:03:13.089Z,54.75
2022-08-20T14:05:42.674Z,66.50
2022-08-20T14:08:15.305Z,53.00
2022-08-20T14:10:44.135Z,53.50
2022-08-20T14:13:15.806Z,53.50
2022-08-20T14:15:44.716Z,54.50
2022-08-20T14:18:14.437Z,54.50
2022-08-20T14:20:45.281Z,50.75
2022-08-20T14:23:16.331Z,55.00
2022-08-20T14:25:47.991Z,55.00
2022-08-20T14:28:19.048Z,54.00
2022-08-20T14:30:53.426Z,51.00
2022-08-20T14:33:23.628Z,50.75
2022-08-20T14:35:53.015Z,51.00
2022-08-20T14:38:22.936Z,74.50
2022-08-20T14:40:51.632Z,57.00
2022-08-20T14:43:20.301Z,58.00
2022-08-20T14:45:48.829Z,55.00
2022-08-20T14:48:17.461Z,56.25
2022-08-20T14:50:46.122Z,54.25
2022-08-20T14:53:14.627Z,56.75
2022-08-20T14:55:44.725Z,56.25
2022-08-20T14:58:15.184Z,53.25
2022-08-20T15:00:44.988Z,53.75
2022-08-20T15:03:14.419Z,50.50
2022-08-20T15:05:44.058Z,53.00
2022-08-20T15:08:12.621Z,53.00
2022-08-20T15:10:42.425Z,56.00
2022-08-20T15:13:12.254Z,55.75
2022-08-20T15:15:40.777Z,53.75
2022-08-20T15:18:09.548Z,57.75
2022-08-20T15:20:39.173Z,57.25
2022-08-20T15:23:09.046Z,51.75
2022-08-20T15:25:38.390Z,55.75
2022-08-20T15:28:09.343Z,58.25
2022-08-20T15:30:41.011Z,55.75
2022-08-20T15:33:10.950Z,56.00
2022-08-20T15:35:40.276Z,54.75
2022-08-20T15:38:08.916Z,57.50
2022-08-20T15:40:38.114Z,56.75
2022-08-20T15:43:07.582Z,51.00
2022-08-20T15:45:36.977Z,54.25
2022-08-20T15:48:14.111Z,50.25
2022-08-20T15:51:01.565Z,54.25
2022-08-20T15:53:36.364Z,50.00
2022-08-20T15:56:12.482Z,51.25
2022-08-20T15:58:48.006Z,69.33
2022-08-20T16:01:25.704Z,51.75
2022-08-20T16:04:12.056Z,51.75
2022-08-20T16:06:43.409Z,47.00
2022-08-20T16:09:38.030Z,50.25
2022-08-20T16:12:11.527Z,45.75
2022-08-20T16:14:42.742Z,45.00
2022-08-20T16:17:14.680Z,38.25
2022-08-20T16:19:53.747Z,45.00
2022-08-20T16:22:22.856Z,38.25
2022-08-20T16:24:51.988Z,41.25
2022-08-20T16:27:30.598Z,36.50
2022-08-20T16:30:04.260Z,39.00
2022-08-20T16:32:42.159Z,33.75
2022-08-20T16:35:30.176Z,35.25
2022-08-20T16:38:08.190Z,41.00
2022-08-20T16:40:49.429Z,36.25
2022-08-20T16:43:22.735Z,46.50
2022-08-20T16:45:56.878Z,46.00
2022-08-20T16:48:34.975Z,42.25
2022-08-20T16:51:09.945Z,45.75
2022-08-20T16:53:38.520Z,44.00
2022-08-20T16:56:07.674Z,45.00
2022-08-20T16:58:36.131Z,45.25
2022-08-20T17:01:12.697Z,47.50
2022-08-20T17:03:51.096Z,49.50
2022-08-20T17:06:27.855Z,49.50
2022-08-20T17:08:57.004Z,47.25
2022-08-20T17:11:29.185Z,49.50
2022-08-20T17:14:10.937Z,51.25
2022-08-20T17:16:43.389Z,52.75
2022-08-20T17:19:18.271Z,52.75
2022-08-20T17:21:50.771Z,55.50
2022-08-20T17:24:26.409Z,49.50
2022-08-20T17:27:00.794Z,52.50
2022-08-20T17:29:32.140Z,53.25
2022-08-20T17:32:10.858Z,53.00
2022-08-20T17:34:46.228Z,51.25
2022-08-20T17:37:23.612Z,53.00
2022-08-20T17:39:54.485Z,42.00
2022-08-20T17:42:26.107Z,49.25
2022-08-20T17:45:05.313Z,46.75
2022-08-20T17:47:37.384Z,48.00
2022-08-20T17:50:14.849Z,48.50
2022-08-20T17:52:49.972Z,45.25
2022-08-20T17:55:20.035Z,50.00
2022-08-20T17:57:52.599Z,49.00
2022-08-20T18:00:25.430Z,49.50
2022-08-20T18:02:59.118Z,44.50
2022-08-20T18:05:31.424Z,49.50
2022-08-20T18:08:16.214Z,50.25
2022-08-20T18:10:58.325Z,48.75
2022-08-20T18:13:45.044Z,49.25
2022-08-20T18:16:26.691Z,47.50
2022-08-20T18:18:59.532Z,43.25
2022-08-20T18:22:01.986Z,51.75
2022-08-20T18:24:40.047Z,47.75
2022-08-20T18:27:15.057Z,47.50
2022-08-20T18:29:47.109Z,46.25
2022-08-20T18:32:29.159Z,43.75
2022-08-20T18:35:13.496Z,46.25
2022-08-20T18:37:42.370Z,46.00
2022-08-20T18:40:18.628Z,55.75
2022-08-20T18:42:48.276Z,50.00
2022-08-20T18:45:29.103Z,46.25
2022-08-20T18:47:58.092Z,44.50
2022-08-20T18:50:32.796Z,48.25
2022-08-20T18:53:12.160Z,48.00
2022-08-20T18:55:44.816Z,47.00
2022-08-20T18:58:15.676Z,47.75
2022-08-20T19:00:46.330Z,61.50
2022-08-20T19:03:31.668Z,48.75
2022-08-20T19:06:11.757Z,44.25
2022-08-20T19:08:49.870Z,44.50
2022-08-20T19:11:49.185Z,42.75
2022-08-20T19:14:39.346Z,45.50
2022-08-20T19:17:12.341Z,44.00
2022-08-20T19:19:41.237Z,44.00
2022-08-20T19:22:13.628Z,50.25
2022-08-20T19:24:44.394Z,46.25
2022-08-20T19:27:14.659Z,42.50
2022-08-20T19:29:49.723Z,51.50
2022-08-20T19:32:28.302Z,44.25
2022-08-20T19:34:59.396Z,41.75
2022-08-20T19:37:39.726Z,45.50
2022-08-20T19:40:28.445Z,45.75
2022-08-20T19:43:02.798Z,41.50
2022-08-20T19:45:38.357Z,39.50
2022-08-20T19:48:38.088Z,61.50
2022-08-20T19:51:13.655Z,46.75
2022-08-20T19:53:47.473Z,38.25
2022-08-20T19:56:19.139Z,40.75
2022-08-20T19:59:00.106Z,47.00
2022-08-20T20:01:29.643Z,41.25
2022-08-20T20:04:00.740Z,42.75
2022-08-20T20:06:33.874Z,47.00
2022-08-20T20:09:06.869Z,42.00
2022-08-20T20:11:38.445Z,42.00
2022-08-20T20:14:11.603Z,43.50
2022-08-20T20:16:42.149Z,45.75
2022-08-20T20:19:28.588Z,34.00
2022-08-20T20:22:08.523Z,37.25
2022-08-20T20:24:58.427Z,47.50
2022-08-20T20:27:28.949Z,37.25
2022-08-20T20:30:03.572Z,37.25
2022-08-20T20:32:33.904Z,38.75
2022-08-20T20:35:06.114Z,38.50
2022-08-20T20:37:49.677Z,44.00
2022-08-20T20:40:25.878Z,46.00
2022-08-20T20:42:59.785Z,36.50
2022-08-20T20:45:34.852Z,41.00
2022-08-20T20:48:15.297Z,36.75
2022-08-20T20:50:43.777Z,41.50
2022-08-20T20:53:13.292Z,39.25
2022-08-20T20:55:42.757Z,34.00
2022-08-20T20:58:11.188Z,41.25
2022-08-20T21:00:41.796Z,35.25
2022-08-20T21:03:10.229Z,39.50
2022-08-20T21:05:40.406Z,40.75
2022-08-20T21:08:11.250Z,40.00
2022-08-20T21:10:42.432Z,33.75
2022-08-20T21:13:12.040Z,37.00
2022-08-20T21:15:41.929Z,36.75
2022-08-20T21:18:10.809Z,33.25
2022-08-20T21:20:39.580Z,36.50
2022-08-20T21:23:08.089Z,36.50
2022-08-20T21:25:37.518Z,40.75
2022-08-20T21:28:06.593Z,40.75
2022-08-20T21:30:35.172Z,36.25
2022-08-20T21:33:05.173Z,35.75
2022-08-20T21:35:33.793Z,38.00
2022-08-20T21:38:02.443Z,34.75
2022-08-20T21:40:31.348Z,40.25
2022-08-20T21:43:00.657Z,44.25
2022-08-20T21:45:29.325Z,45.50
2022-08-20T21:47:58.504Z,44.25
2022-08-20T21:50:29.090Z,47.75
2022-08-20T21:52:59.751Z,41.50
2022-08-20T21:55:35.150Z,43.75
2022-08-20T21:58:08.303Z,47.25
2022-08-20T22:00:51.628Z,33.75
2022-08-20T22:03:21.054Z,52.75
2022-08-20T22:05:51.752Z,51.25
2022-08-20T22:08:21.128Z,47.00
2022-08-20T22:10:57.080Z,48.25
2022-08-20T22:13:28.273Z,47.75
2022-08-20T22:15:56.995Z,52.50
2022-08-20T22:18:25.471Z,53.50
2022-08-20T22:20:55.433Z,52.00
2022-08-20T22:23:24.719Z,49.50
2022-08-20T22:25:53.590Z,46.75
2022-08-20T22:28:23.218Z,50.75
2022-08-20T22:30:52.136Z,47.75
2022-08-20T22:33:23.472Z,48.50
2022-08-20T22:35:54.364Z,49.75
2022-08-20T22:38:25.619Z,52.50
2022-08-20T22:40:54.529Z,51.00
2022-08-20T22:43:23.453Z,45.75
2022-08-20T22:45:56.926Z,49.50
2022-08-20T22:48:25.593Z,51.00
2022-08-20T22:50:55.404Z,49.00
2022-08-20T22:53:27.251Z,54.25
2022-08-20T22:55:56.480Z,58.00
2022-08-20T22:58:31.141Z,53.50
2022-08-20T23:01:02.333Z,48.25
2022-08-20T23:03:39.981Z,52.50
2022-08-20T23:06:10.899Z,56.75
2022-08-20T23:08:41.817Z,58.00
2022-08-20T23:11:10.718Z,58.50
2022-08-20T23:13:39.496Z,54.50
2022-08-20T23:16:08.468Z,55.25
2022-08-20T23:18:37.183Z,53.50
2022-08-20T23:21:05.839Z,59.50
2022-08-20T23:23:34.316Z,56.00
2022-08-20T23:26:04.332Z,56.50
2022-08-20T23:28:33.632Z,52.50
2022-08-20T23:31:02.562Z,52.75
2022-08-20T23:33:31.531Z,52.50
2022-08-20T23:36:03.751Z,54.00
2022-08-20T23:38:32.528Z,55.50
2022-08-20T23:41:01.075Z,52.00
2022-08-20T23:43:31.168Z,53.25
2022-08-20T23:46:03.478Z,57.25
2022-08-20T23:48:32.010Z,51.50
2022-08-20T23:51:00.644Z,53.75
2022-08-20T23:53:29.139Z,56.25
2022-08-20T23:55:57.826Z,55.75
2022-08-20T23:58:26.523Z,53.00
